sensor_id;sensor_type;location;lat;lon;timestamp;P1;durP1;ratioP1;P2;durP2;ratioP2
77302;SDS011;66363;49.828;7.856;2023-02-23T00:01:44;23.90;;;11.50;;
77302;SDS011;66363;49.828;7.856;2023-02-23T00:04:09;24.40;;;11.48;;
77302;SDS011;66363;49.828;7.856;2023-02-23T00:06:35;26.95;;;13.27;;
77302;SDS011;66363;49.828;7.856;2023-02-23T00:09:02;22.60;;;12.35;;
77302;SDS011;66363;49.828;7.856;2023-02-23T00:13:54;25.45;;;12.70;;
77302;SDS011;66363;49.828;7.856;2023-02-23T00:16:21;22.80;;;12.57;;
77302;SDS011;66363;49.828;7.856;2023-02-23T00:18:48;25.13;;;13.88;;
77302;SDS011;66363;49.828;7.856;2023-02-23T00:21:15;22.45;;;12.93;;
77302;SDS011;66363;49.828;7.856;2023-02-23T00:23:42;27.38;;;13.93;;
77302;SDS011;66363;49.828;7.856;2023-02-23T00:26:12;27.75;;;12.68;;
77302;SDS011;66363;49.828;7.856;2023-02-23T00:28:40;25.27;;;12.85;;
77302;SDS011;66363;49.828;7.856;2023-02-23T00:31:07;25.27;;;12.43;;
77302;SDS011;66363;49.828;7.856;2023-02-23T00:33:33;27.92;;;12.38;;
77302;SDS011;66363;49.828;7.856;2023-02-23T00:36:02;26.30;;;13.00;;
77302;SDS011;66363;49.828;7.856;2023-02-23T00:38:28;27.58;;;13.70;;
77302;SDS011;66363;49.828;7.856;2023-02-23T00:40:54;23.20;;;11.77;;
77302;SDS011;66363;49.828;7.856;2023-02-23T00:43:20;25.77;;;12.93;;
77302;SDS011;66363;49.828;7.856;2023-02-23T00:45:47;30.05;;;13.65;;
77302;SDS011;66363;49.828;7.856;2023-02-23T00:48:12;23.70;;;12.10;;
77302;SDS011;66363;49.828;7.856;2023-02-23T00:50:38;26.30;;;14.00;;
77302;SDS011;66363;49.828;7.856;2023-02-23T00:53:04;27.98;;;13.40;;
77302;SDS011;66363;49.828;7.856;2023-02-23T00:55:29;30.55;;;15.15;;
77302;SDS011;66363;49.828;7.856;2023-02-23T00:57:55;31.25;;;14.73;;
77302;SDS011;66363;49.828;7.856;2023-02-23T01:00:20;27.65;;;13.95;;
77302;SDS011;66363;49.828;7.856;2023-02-23T01:02:48;33.05;;;16.75;;
77302;SDS011;66363;49.828;7.856;2023-02-23T01:05:14;26.05;;;13.52;;
77302;SDS011;66363;49.828;7.856;2023-02-23T01:07:40;30.55;;;14.00;;
77302;SDS011;66363;49.828;7.856;2023-02-23T01:10:06;28.15;;;14.35;;
77302;SDS011;66363;49.828;7.856;2023-02-23T01:12:33;28.38;;;14.05;;
77302;SDS011;66363;49.828;7.856;2023-02-23T01:14:58;28.67;;;15.38;;
77302;SDS011;66363;49.828;7.856;2023-02-23T01:17:24;32.42;;;15.05;;
77302;SDS011;66363;49.828;7.856;2023-02-23T01:19:51;28.70;;;15.45;;
77302;SDS011;66363;49.828;7.856;2023-02-23T01:22:16;30.13;;;14.57;;
77302;SDS011;66363;49.828;7.856;2023-02-23T01:24:42;30.80;;;13.82;;
77302;SDS011;66363;49.828;7.856;2023-02-23T01:27:07;30.77;;;15.05;;
77302;SDS011;66363;49.828;7.856;2023-02-23T01:29:33;27.15;;;15.02;;
77302;SDS011;66363;49.828;7.856;2023-02-23T01:31:59;26.02;;;12.82;;
77302;SDS011;66363;49.828;7.856;2023-02-23T01:34:24;28.02;;;14.32;;
77302;SDS011;66363;49.828;7.856;2023-02-23T01:36:51;29.08;;;13.13;;
77302;SDS011;66363;49.828;7.856;2023-02-23T01:39:17;30.70;;;14.13;;
77302;SDS011;66363;49.828;7.856;2023-02-23T01:41:44;33.30;;;16.33;;
77302;SDS011;66363;49.828;7.856;2023-02-23T01:47:13;28.40;;;15.88;;
77302;SDS011;66363;49.828;7.856;2023-02-23T01:49:39;27.98;;;15.25;;
77302;SDS011;66363;49.828;7.856;2023-02-23T01:52:07;28.80;;;15.05;;
77302;SDS011;66363;49.828;7.856;2023-02-23T01:54:38;29.70;;;15.32;;
77302;SDS011;66363;49.828;7.856;2023-02-23T01:57:09;33.72;;;16.52;;
77302;SDS011;66363;49.828;7.856;2023-02-23T01:59:38;29.27;;;14.27;;
77302;SDS011;66363;49.828;7.856;2023-02-23T02:02:06;27.80;;;12.52;;
77302;SDS011;66363;49.828;7.856;2023-02-23T02:04:33;30.77;;;16.02;;
77302;SDS011;66363;49.828;7.856;2023-02-23T02:07:00;31.55;;;15.95;;
77302;SDS011;66363;49.828;7.856;2023-02-23T02:09:29;31.80;;;15.05;;
77302;SDS011;66363;49.828;7.856;2023-02-23T02:11:56;33.08;;;14.40;;
77302;SDS011;66363;49.828;7.856;2023-02-23T02:14:22;25.08;;;14.65;;
77302;SDS011;66363;49.828;7.856;2023-02-23T02:16:53;29.02;;;14.95;;
77302;SDS011;66363;49.828;7.856;2023-02-23T02:25:37;30.92;;;15.00;;
77302;SDS011;66363;49.828;7.856;2023-02-23T02:28:34;26.20;;;15.23;;
77302;SDS011;66363;49.828;7.856;2023-02-23T02:34:44;30.40;;;14.13;;
77302;SDS011;66363;49.828;7.856;2023-02-23T02:37:37;25.67;;;13.52;;
77302;SDS011;66363;49.828;7.856;2023-02-23T02:40:12;29.65;;;13.57;;
77302;SDS011;66363;49.828;7.856;2023-02-23T02:42:52;27.23;;;14.60;;
77302;SDS011;66363;49.828;7.856;2023-02-23T02:45:25;31.88;;;17.35;;
77302;SDS011;66363;49.828;7.856;2023-02-23T02:47:55;27.00;;;14.60;;
77302;SDS011;66363;49.828;7.856;2023-02-23T02:50:30;28.02;;;15.55;;
77302;SDS011;66363;49.828;7.856;2023-02-23T02:53:07;29.50;;;14.45;;
77302;SDS011;66363;49.828;7.856;2023-02-23T02:55:35;32.50;;;15.88;;
77302;SDS011;66363;49.828;7.856;2023-02-23T02:58:05;27.20;;;16.33;;
77302;SDS011;66363;49.828;7.856;2023-02-23T03:00:34;24.80;;;14.73;;
77302;SDS011;66363;49.828;7.856;2023-02-23T03:03:02;31.15;;;14.90;;
77302;SDS011;66363;49.828;7.856;2023-02-23T03:05:40;26.48;;;14.05;;
77302;SDS011;66363;49.828;7.856;2023-02-23T03:08:13;26.05;;;12.85;;
77302;SDS011;66363;49.828;7.856;2023-02-23T03:10:46;25.30;;;13.32;;
77302;SDS011;66363;49.828;7.856;2023-02-23T03:13:21;28.05;;;14.82;;
77302;SDS011;66363;49.828;7.856;2023-02-23T03:16:05;24.27;;;13.25;;
77302;SDS011;66363;49.828;7.856;2023-02-23T03:18:48;25.40;;;13.07;;
77302;SDS011;66363;49.828;7.856;2023-02-23T03:21:27;27.15;;;14.77;;
77302;SDS011;66363;49.828;7.856;2023-02-23T03:24:04;30.42;;;14.93;;
77302;SDS011;66363;49.828;7.856;2023-02-23T03:26:36;26.98;;;14.32;;
77302;SDS011;66363;49.828;7.856;2023-02-23T03:29:08;29.85;;;15.60;;
77302;SDS011;66363;49.828;7.856;2023-02-23T03:31:39;32.05;;;15.07;;
77302;SDS011;66363;49.828;7.856;2023-02-23T03:34:13;26.77;;;13.63;;
77302;SDS011;66363;49.828;7.856;2023-02-23T03:36:42;25.30;;;13.07;;
77302;SDS011;66363;49.828;7.856;2023-02-23T03:39:16;25.92;;;14.40;;
77302;SDS011;66363;49.828;7.856;2023-02-23T03:41:46;22.45;;;13.30;;
77302;SDS011;66363;49.828;7.856;2023-02-23T03:44:17;28.77;;;13.82;;
77302;SDS011;66363;49.828;7.856;2023-02-23T03:46:49;23.48;;;13.43;;
77302;SDS011;66363;49.828;7.856;2023-02-23T03:49:17;28.30;;;13.45;;
77302;SDS011;66363;49.828;7.856;2023-02-23T03:51:45;31.40;;;15.73;;
77302;SDS011;66363;49.828;7.856;2023-02-23T03:54:18;30.40;;;14.40;;
77302;SDS011;66363;49.828;7.856;2023-02-23T03:56:49;28.48;;;13.77;;
77302;SDS011;66363;49.828;7.856;2023-02-23T03:59:17;38.33;;;15.57;;
77302;SDS011;66363;49.828;7.856;2023-02-23T04:01:46;25.65;;;14.25;;
77302;SDS011;66363;49.828;7.856;2023-02-23T04:04:14;25.92;;;13.45;;
77302;SDS011;66363;49.828;7.856;2023-02-23T04:06:41;28.83;;;13.50;;
77302;SDS011;66363;49.828;7.856;2023-02-23T04:09:08;28.77;;;14.27;;
77302;SDS011;66363;49.828;7.856;2023-02-23T04:11:39;28.80;;;13.63;;
77302;SDS011;66363;49.828;7.856;2023-02-23T04:14:14;28.45;;;14.32;;
77302;SDS011;66363;49.828;7.856;2023-02-23T04:16:43;26.73;;;14.70;;
77302;SDS011;66363;49.828;7.856;2023-02-23T04:19:09;26.63;;;13.88;;
77302;SDS011;66363;49.828;7.856;2023-02-23T04:21:35;26.52;;;13.27;;
77302;SDS011;66363;49.828;7.856;2023-02-23T04:24:01;27.45;;;14.52;;
77302;SDS011;66363;49.828;7.856;2023-02-23T04:26:27;29.55;;;14.98;;
77302;SDS011;66363;49.828;7.856;2023-02-23T04:28:54;21.92;;;11.85;;
77302;SDS011;66363;49.828;7.856;2023-02-23T04:31:19;24.77;;;13.25;;
77302;SDS011;66363;49.828;7.856;2023-02-23T04:33:45;25.52;;;12.65;;
77302;SDS011;66363;49.828;7.856;2023-02-23T04:36:11;24.15;;;13.45;;
77302;SDS011;66363;49.828;7.856;2023-02-23T04:38:36;26.73;;;14.15;;
77302;SDS011;66363;49.828;7.856;2023-02-23T04:41:02;29.02;;;14.02;;
77302;SDS011;66363;49.828;7.856;2023-02-23T04:43:28;27.15;;;13.05;;
77302;SDS011;66363;49.828;7.856;2023-02-23T04:45:55;29.25;;;13.43;;
77302;SDS011;66363;49.828;7.856;2023-02-23T04:48:20;26.67;;;13.70;;
77302;SDS011;66363;49.828;7.856;2023-02-23T04:50:46;23.92;;;14.27;;
77302;SDS011;66363;49.828;7.856;2023-02-23T04:53:11;22.83;;;12.52;;
77302;SDS011;66363;49.828;7.856;2023-02-23T04:55:37;25.95;;;12.90;;
77302;SDS011;66363;49.828;7.856;2023-02-23T04:58:03;21.92;;;11.98;;
77302;SDS011;66363;49.828;7.856;2023-02-23T05:00:28;27.23;;;13.60;;
77302;SDS011;66363;49.828;7.856;2023-02-23T05:02:55;23.48;;;13.90;;
77302;SDS011;66363;49.828;7.856;2023-02-23T05:05:21;28.67;;;14.30;;
77302;SDS011;66363;49.828;7.856;2023-02-23T05:07:47;23.48;;;12.32;;
77302;SDS011;66363;49.828;7.856;2023-02-23T05:10:12;26.02;;;12.93;;
77302;SDS011;66363;49.828;7.856;2023-02-23T05:12:38;22.70;;;12.32;;
77302;SDS011;66363;49.828;7.856;2023-02-23T05:15:04;27.10;;;12.40;;
77302;SDS011;66363;49.828;7.856;2023-02-23T05:17:30;25.55;;;12.60;;
77302;SDS011;66363;49.828;7.856;2023-02-23T05:19:57;24.05;;;13.00;;
77302;SDS011;66363;49.828;7.856;2023-02-23T05:22:23;26.67;;;13.07;;
77302;SDS011;66363;49.828;7.856;2023-02-23T05:24:49;27.98;;;14.27;;
77302;SDS011;66363;49.828;7.856;2023-02-23T05:27:14;25.33;;;13.82;;
77302;SDS011;66363;49.828;7.856;2023-02-23T05:29:40;25.95;;;12.95;;
77302;SDS011;66363;49.828;7.856;2023-02-23T05:32:05;25.30;;;13.00;;
77302;SDS011;66363;49.828;7.856;2023-02-23T05:34:31;30.30;;;14.20;;
77302;SDS011;66363;49.828;7.856;2023-02-23T05:36:58;29.52;;;13.75;;
77302;SDS011;66363;49.828;7.856;2023-02-23T05:39:24;31.23;;;13.60;;
77302;SDS011;66363;49.828;7.856;2023-02-23T05:41:49;27.60;;;13.93;;
77302;SDS011;66363;49.828;7.856;2023-02-23T05:44:15;24.88;;;13.05;;
77302;SDS011;66363;49.828;7.856;2023-02-23T05:46:41;24.58;;;13.93;;
77302;SDS011;66363;49.828;7.856;2023-02-23T05:49:06;29.13;;;14.30;;
77302;SDS011;66363;49.828;7.856;2023-02-23T05:51:33;24.15;;;12.18;;
77302;SDS011;66363;49.828;7.856;2023-02-23T05:54:00;27.00;;;13.77;;
77302;SDS011;66363;49.828;7.856;2023-02-23T05:56:26;26.75;;;13.32;;
77302;SDS011;66363;49.828;7.856;2023-02-23T05:58:53;25.23;;;13.32;;
77302;SDS011;66363;49.828;7.856;2023-02-23T06:01:20;30.67;;;14.50;;
77302;SDS011;66363;49.828;7.856;2023-02-23T06:03:46;24.15;;;13.10;;
77302;SDS011;66363;49.828;7.856;2023-02-23T06:06:13;25.60;;;13.07;;
77302;SDS011;66363;49.828;7.856;2023-02-23T06:11:06;24.40;;;12.90;;
77302;SDS011;66363;49.828;7.856;2023-02-23T06:13:32;27.20;;;14.70;;
77302;SDS011;66363;49.828;7.856;2023-02-23T06:15:57;22.13;;;13.20;;
77302;SDS011;66363;49.828;7.856;2023-02-23T06:18:24;25.55;;;13.23;;
77302;SDS011;66363;49.828;7.856;2023-02-23T06:20:50;26.08;;;13.75;;
77302;SDS011;66363;49.828;7.856;2023-02-23T06:23:16;23.45;;;13.23;;
77302;SDS011;66363;49.828;7.856;2023-02-23T06:25:42;24.40;;;12.55;;
77302;SDS011;66363;49.828;7.856;2023-02-23T06:28:09;24.85;;;12.88;;
77302;SDS011;66363;49.828;7.856;2023-02-23T06:30:35;26.13;;;12.63;;
77302;SDS011;66363;49.828;7.856;2023-02-23T06:35:26;25.00;;;12.98;;
77302;SDS011;66363;49.828;7.856;2023-02-23T06:37:52;28.48;;;13.90;;
77302;SDS011;66363;49.828;7.856;2023-02-23T06:40:18;27.25;;;14.18;;
77302;SDS011;66363;49.828;7.856;2023-02-23T06:42:44;28.60;;;14.88;;
77302;SDS011;66363;49.828;7.856;2023-02-23T06:45:12;28.48;;;13.73;;
77302;SDS011;66363;49.828;7.856;2023-02-23T06:47:37;26.02;;;13.32;;
77302;SDS011;66363;49.828;7.856;2023-02-23T06:50:04;29.73;;;14.55;;
77302;SDS011;66363;49.828;7.856;2023-02-23T06:52:30;26.77;;;14.48;;
77302;SDS011;66363;49.828;7.856;2023-02-23T06:54:55;27.98;;;15.98;;
77302;SDS011;66363;49.828;7.856;2023-02-23T06:57:21;30.25;;;15.10;;
77302;SDS011;66363;49.828;7.856;2023-02-23T06:59:47;27.67;;;14.90;;
77302;SDS011;66363;49.828;7.856;2023-02-23T07:02:14;26.48;;;15.38;;
77302;SDS011;66363;49.828;7.856;2023-02-23T07:04:39;31.63;;;13.98;;
77302;SDS011;66363;49.828;7.856;2023-02-23T07:07:05;25.13;;;13.48;;
77302;SDS011;66363;49.828;7.856;2023-02-23T07:09:31;29.38;;;13.90;;
77302;SDS011;66363;49.828;7.856;2023-02-23T07:11:56;25.38;;;13.32;;
77302;SDS011;66363;49.828;7.856;2023-02-23T07:16:48;23.93;;;12.43;;
77302;SDS011;66363;49.828;7.856;2023-02-23T07:19:15;27.15;;;14.23;;
77302;SDS011;66363;49.828;7.856;2023-02-23T07:21:41;29.58;;;13.95;;
77302;SDS011;66363;49.828;7.856;2023-02-23T07:24:07;26.70;;;13.77;;
77302;SDS011;66363;49.828;7.856;2023-02-23T07:26:32;27.38;;;14.90;;
77302;SDS011;66363;49.828;7.856;2023-02-23T07:28:58;28.52;;;15.10;;
77302;SDS011;66363;49.828;7.856;2023-02-23T07:31:24;30.05;;;16.10;;
77302;SDS011;66363;49.828;7.856;2023-02-23T07:33:50;32.22;;;15.77;;
77302;SDS011;66363;49.828;7.856;2023-02-23T07:36:17;30.60;;;15.27;;
77302;SDS011;66363;49.828;7.856;2023-02-23T07:38:43;29.63;;;14.73;;
77302;SDS011;66363;49.828;7.856;2023-02-23T07:41:08;26.85;;;14.60;;
77302;SDS011;66363;49.828;7.856;2023-02-23T07:43:34;30.02;;;16.35;;
77302;SDS011;66363;49.828;7.856;2023-02-23T07:45:59;29.92;;;16.45;;
77302;SDS011;66363;49.828;7.856;2023-02-23T07:48:26;31.30;;;16.00;;
77302;SDS011;66363;49.828;7.856;2023-02-23T07:50:52;33.20;;;16.25;;
77302;SDS011;66363;49.828;7.856;2023-02-23T07:53:19;27.42;;;15.20;;
77302;SDS011;66363;49.828;7.856;2023-02-23T07:55:45;28.05;;;14.57;;
77302;SDS011;66363;49.828;7.856;2023-02-23T07:58:10;29.77;;;14.43;;
77302;SDS011;66363;49.828;7.856;2023-02-23T08:00:36;26.10;;;14.60;;
77302;SDS011;66363;49.828;7.856;2023-02-23T08:03:02;31.15;;;15.52;;
77302;SDS011;66363;49.828;7.856;2023-02-23T08:05:27;31.27;;;14.93;;
77302;SDS011;66363;49.828;7.856;2023-02-23T08:07:53;30.88;;;13.35;;
77302;SDS011;66363;49.828;7.856;2023-02-23T08:10:20;22.67;;;12.95;;
77302;SDS011;66363;49.828;7.856;2023-02-23T08:12:46;23.08;;;12.80;;
77302;SDS011;66363;49.828;7.856;2023-02-23T08:15:11;22.83;;;12.45;;
77302;SDS011;66363;49.828;7.856;2023-02-23T08:17:37;22.63;;;11.55;;
77302;SDS011;66363;49.828;7.856;2023-02-23T08:22:30;23.17;;;10.95;;
77302;SDS011;66363;49.828;7.856;2023-02-23T08:24:56;24.85;;;12.88;;
77302;SDS011;66363;49.828;7.856;2023-02-23T08:27:23;22.67;;;11.90;;
77302;SDS011;66363;49.828;7.856;2023-02-23T08:29:48;22.05;;;10.25;;
77302;SDS011;66363;49.828;7.856;2023-02-23T08:32:14;20.77;;;10.23;;
77302;SDS011;66363;49.828;7.856;2023-02-23T08:34:40;16.35;;;8.52;;
77302;SDS011;66363;49.828;7.856;2023-02-23T08:37:07;15.18;;;8.15;;
77302;SDS011;66363;49.828;7.856;2023-02-23T08:39:33;14.68;;;8.15;;
77302;SDS011;66363;49.828;7.856;2023-02-23T08:41:59;13.27;;;8.35;;
77302;SDS011;66363;49.828;7.856;2023-02-23T08:44:26;13.88;;;7.07;;
77302;SDS011;66363;49.828;7.856;2023-02-23T08:46:51;14.80;;;8.38;;
77302;SDS011;66363;49.828;7.856;2023-02-23T08:49:17;16.10;;;8.10;;
77302;SDS011;66363;49.828;7.856;2023-02-23T08:51:42;13.15;;;7.28;;
77302;SDS011;66363;49.828;7.856;2023-02-23T08:54:08;15.25;;;8.50;;
77302;SDS011;66363;49.828;7.856;2023-02-23T08:56:34;13.93;;;8.32;;
77302;SDS011;66363;49.828;7.856;2023-02-23T08:58:59;15.98;;;7.95;;
77302;SDS011;66363;49.828;7.856;2023-02-23T09:01:26;13.75;;;7.65;;
77302;SDS011;66363;49.828;7.856;2023-02-23T09:03:52;15.73;;;8.32;;
77302;SDS011;66363;49.828;7.856;2023-02-23T09:06:18;15.75;;;7.90;;
77302;SDS011;66363;49.828;7.856;2023-02-23T09:08:45;15.52;;;7.50;;
77302;SDS011;66363;49.828;7.856;2023-02-23T09:11:11;16.25;;;8.23;;
77302;SDS011;66363;49.828;7.856;2023-02-23T09:13:37;15.88;;;8.90;;
77302;SDS011;66363;49.828;7.856;2023-02-23T09:16:03;15.32;;;8.23;;
77302;SDS011;66363;49.828;7.856;2023-02-23T09:20:55;12.70;;;6.70;;
77302;SDS011;66363;49.828;7.856;2023-02-23T09:23:21;16.63;;;7.78;;
77302;SDS011;66363;49.828;7.856;2023-02-23T09:25:47;12.07;;;6.50;;
77302;SDS011;66363;49.828;7.856;2023-02-23T09:28:13;11.73;;;6.68;;
77302;SDS011;66363;49.828;7.856;2023-02-23T09:30:41;10.20;;;6.55;;
77302;SDS011;66363;49.828;7.856;2023-02-23T09:33:07;13.40;;;6.60;;
77302;SDS011;66363;49.828;7.856;2023-02-23T09:35:35;11.02;;;6.68;;
77302;SDS011;66363;49.828;7.856;2023-02-23T09:38:01;12.68;;;6.32;;
77302;SDS011;66363;49.828;7.856;2023-02-23T09:40:29;10.20;;;5.63;;
77302;SDS011;66363;49.828;7.856;2023-02-23T09:43:09;11.00;;;5.65;;
77302;SDS011;66363;49.828;7.856;2023-02-23T09:45:38;11.52;;;5.88;;
77302;SDS011;66363;49.828;7.856;2023-02-23T09:48:13;12.88;;;6.35;;
77302;SDS011;66363;49.828;7.856;2023-02-23T09:50:44;12.25;;;7.10;;
77302;SDS011;66363;49.828;7.856;2023-02-23T09:53:19;11.85;;;5.70;;
77302;SDS011;66363;49.828;7.856;2023-02-23T09:55:50;11.27;;;5.80;;
77302;SDS011;66363;49.828;7.856;2023-02-23T09:58:20;9.27;;;5.03;;
77302;SDS011;66363;49.828;7.856;2023-02-23T10:00:50;10.68;;;5.70;;
77302;SDS011;66363;49.828;7.856;2023-02-23T10:03:32;13.10;;;5.57;;
77302;SDS011;66363;49.828;7.856;2023-02-23T10:06:00;9.98;;;5.38;;
77302;SDS011;66363;49.828;7.856;2023-02-23T10:08:34;9.65;;;5.45;;
77302;SDS011;66363;49.828;7.856;2023-02-23T10:11:08;9.98;;;5.10;;
77302;SDS011;66363;49.828;7.856;2023-02-23T10:16:18;7.63;;;4.40;;
77302;SDS011;66363;49.828;7.856;2023-02-23T10:18:50;8.77;;;4.68;;
77302;SDS011;66363;49.828;7.856;2023-02-23T10:21:25;8.70;;;4.05;;
77302;SDS011;66363;49.828;7.856;2023-02-23T10:23:57;8.27;;;4.70;;
77302;SDS011;66363;49.828;7.856;2023-02-23T10:26:26;9.48;;;4.30;;
77302;SDS011;66363;49.828;7.856;2023-02-23T10:31:37;8.27;;;4.15;;
77302;SDS011;66363;49.828;7.856;2023-02-23T10:34:09;7.35;;;4.15;;
77302;SDS011;66363;49.828;7.856;2023-02-23T10:36:40;9.82;;;4.68;;
77302;SDS011;66363;49.828;7.856;2023-02-23T10:39:11;9.77;;;4.47;;
77302;SDS011;66363;49.828;7.856;2023-02-23T10:41:37;10.30;;;4.88;;
77302;SDS011;66363;49.828;7.856;2023-02-23T10:44:04;8.60;;;4.30;;
77302;SDS011;66363;49.828;7.856;2023-02-23T10:46:35;8.70;;;4.93;;
77302;SDS011;66363;49.828;7.856;2023-02-23T10:49:03;9.52;;;4.88;;
77302;SDS011;66363;49.828;7.856;2023-02-23T10:51:36;10.50;;;4.85;;
77302;SDS011;66363;49.828;7.856;2023-02-23T10:59:32;9.13;;;4.22;;
77302;SDS011;66363;49.828;7.856;2023-02-23T11:01:58;8.88;;;5.00;;
77302;SDS011;66363;49.828;7.856;2023-02-23T11:04:40;9.48;;;4.43;;
77302;SDS011;66363;49.828;7.856;2023-02-23T11:07:18;7.13;;;4.15;;
77302;SDS011;66363;49.828;7.856;2023-02-23T11:09:47;9.25;;;4.45;;
77302;SDS011;66363;49.828;7.856;2023-02-23T11:12:16;6.43;;;4.25;;
77302;SDS011;66363;49.828;7.856;2023-02-23T11:14:44;8.40;;;4.45;;
77302;SDS011;66363;49.828;7.856;2023-02-23T11:17:21;7.70;;;4.13;;
77302;SDS011;66363;49.828;7.856;2023-02-23T11:19:50;8.13;;;4.45;;
77302;SDS011;66363;49.828;7.856;2023-02-23T11:22:18;6.65;;;4.53;;
77302;SDS011;66363;49.828;7.856;2023-02-23T11:24:44;7.75;;;4.28;;
77302;SDS011;66363;49.828;7.856;2023-02-23T11:27:17;7.60;;;4.10;;
77302;SDS011;66363;49.828;7.856;2023-02-23T11:29:45;8.13;;;5.15;;
77302;SDS011;66363;49.828;7.856;2023-02-23T11:32:12;7.57;;;4.35;;
77302;SDS011;66363;49.828;7.856;2023-02-23T11:34:41;5.68;;;4.00;;
77302;SDS011;66363;49.828;7.856;2023-02-23T11:37:19;6.50;;;3.92;;
77302;SDS011;66363;49.828;7.856;2023-02-23T11:39:50;6.93;;;3.90;;
77302;SDS011;66363;49.828;7.856;2023-02-23T11:42:18;8.32;;;4.10;;
77302;SDS011;66363;49.828;7.856;2023-02-23T11:44:51;7.55;;;4.03;;
77302;SDS011;66363;49.828;7.856;2023-02-23T11:47:27;5.82;;;3.15;;
77302;SDS011;66363;49.828;7.856;2023-02-23T11:49:54;7.38;;;3.85;;
77302;SDS011;66363;49.828;7.856;2023-02-23T11:54:49;5.53;;;3.63;;
77302;SDS011;66363;49.828;7.856;2023-02-23T11:57:19;6.10;;;3.67;;
77302;SDS011;66363;49.828;7.856;2023-02-23T11:59:46;6.05;;;3.25;;
77302;SDS011;66363;49.828;7.856;2023-02-23T12:02:17;7.68;;;4.32;;
77302;SDS011;66363;49.828;7.856;2023-02-23T12:04:46;6.18;;;3.72;;
77302;SDS011;66363;49.828;7.856;2023-02-23T12:07:19;6.70;;;3.53;;
77302;SDS011;66363;49.828;7.856;2023-02-23T12:09:58;6.03;;;3.80;;
77302;SDS011;66363;49.828;7.856;2023-02-23T12:12:29;8.35;;;3.78;;
77302;SDS011;66363;49.828;7.856;2023-02-23T12:14:58;5.68;;;3.17;;
77302;SDS011;66363;49.828;7.856;2023-02-23T12:17:28;7.28;;;3.90;;
77302;SDS011;66363;49.828;7.856;2023-02-23T12:20:01;5.75;;;3.67;;
77302;SDS011;66363;49.828;7.856;2023-02-23T12:22:33;6.35;;;3.40;;
77302;SDS011;66363;49.828;7.856;2023-02-23T12:25:02;6.47;;;3.55;;
77302;SDS011;66363;49.828;7.856;2023-02-23T12:27:36;7.10;;;3.55;;
77302;SDS011;66363;49.828;7.856;2023-02-23T12:30:11;5.95;;;3.47;;
77302;SDS011;66363;49.828;7.856;2023-02-23T12:32:44;5.75;;;3.70;;
77302;SDS011;66363;49.828;7.856;2023-02-23T12:35:13;6.47;;;4.13;;
77302;SDS011;66363;49.828;7.856;2023-02-23T12:37:48;5.03;;;3.13;;
77302;SDS011;66363;49.828;7.856;2023-02-23T12:40:21;4.93;;;3.42;;
77302;SDS011;66363;49.828;7.856;2023-02-23T12:42:52;7.60;;;3.40;;
77302;SDS011;66363;49.828;7.856;2023-02-23T12:45:25;5.97;;;3.15;;
77302;SDS011;66363;49.828;7.856;2023-02-23T12:47:59;6.55;;;3.50;;
77302;SDS011;66363;49.828;7.856;2023-02-23T12:50:33;7.35;;;4.20;;
77302;SDS011;66363;49.828;7.856;2023-02-23T12:53:06;5.43;;;2.90;;
77302;SDS011;66363;49.828;7.856;2023-02-23T12:55:44;4.95;;;3.05;;
77302;SDS011;66363;49.828;7.856;2023-02-23T12:58:27;5.03;;;3.28;;
77302;SDS011;66363;49.828;7.856;2023-02-23T13:00:59;7.35;;;3.65;;
77302;SDS011;66363;49.828;7.856;2023-02-23T13:03:43;6.13;;;3.42;;
77302;SDS011;66363;49.828;7.856;2023-02-23T13:06:32;6.32;;;3.45;;
77302;SDS011;66363;49.828;7.856;2023-02-23T13:09:06;8.15;;;4.28;;
77302;SDS011;66363;49.828;7.856;2023-02-23T13:11:52;8.13;;;3.55;;
77302;SDS011;66363;49.828;7.856;2023-02-23T13:14:37;5.32;;;3.33;;
77302;SDS011;66363;49.828;7.856;2023-02-23T13:17:13;5.90;;;3.88;;
77302;SDS011;66363;49.828;7.856;2023-02-23T13:19:52;7.35;;;3.30;;
77302;SDS011;66363;49.828;7.856;2023-02-23T13:22:25;6.28;;;3.95;;
77302;SDS011;66363;49.828;7.856;2023-02-23T13:24:57;5.07;;;3.20;;
77302;SDS011;66363;49.828;7.856;2023-02-23T13:27:26;6.78;;;4.00;;
77302;SDS011;66363;49.828;7.856;2023-02-23T13:32:24;5.75;;;3.25;;
77302;SDS011;66363;49.828;7.856;2023-02-23T13:34:51;6.50;;;4.00;;
77302;SDS011;66363;49.828;7.856;2023-02-23T13:37:21;8.05;;;4.22;;
77302;SDS011;66363;49.828;7.856;2023-02-23T13:39:52;5.55;;;3.75;;
77302;SDS011;66363;49.828;7.856;2023-02-23T13:42:30;6.80;;;3.75;;
77302;SDS011;66363;49.828;7.856;2023-02-23T13:45:12;6.65;;;3.88;;
77302;SDS011;66363;49.828;7.856;2023-02-23T13:47:52;5.07;;;3.13;;
77302;SDS011;66363;49.828;7.856;2023-02-23T13:50:27;5.18;;;3.08;;
77302;SDS011;66363;49.828;7.856;2023-02-23T13:53:01;6.47;;;3.38;;
77302;SDS011;66363;49.828;7.856;2023-02-23T13:55:35;8.20;;;3.88;;
77302;SDS011;66363;49.828;7.856;2023-02-23T13:58:13;6.82;;;3.40;;
77302;SDS011;66363;49.828;7.856;2023-02-23T14:00:41;7.25;;;3.60;;
77302;SDS011;66363;49.828;7.856;2023-02-23T14:03:07;6.25;;;3.75;;
77302;SDS011;66363;49.828;7.856;2023-02-23T14:05:48;6.43;;;3.67;;
77302;SDS011;66363;49.828;7.856;2023-02-23T14:08:20;5.90;;;3.38;;
77302;SDS011;66363;49.828;7.856;2023-02-23T14:10:53;6.20;;;4.03;;
77302;SDS011;66363;49.828;7.856;2023-02-23T14:13:23;6.32;;;3.78;;
77302;SDS011;66363;49.828;7.856;2023-02-23T14:16:06;6.72;;;3.50;;
77302;SDS011;66363;49.828;7.856;2023-02-23T14:18:49;6.15;;;3.08;;
77302;SDS011;66363;49.828;7.856;2023-02-23T14:21:21;6.72;;;3.55;;
77302;SDS011;66363;49.828;7.856;2023-02-23T14:24:01;5.70;;;3.80;;
77302;SDS011;66363;49.828;7.856;2023-02-23T14:26:36;7.65;;;3.60;;
77302;SDS011;66363;49.828;7.856;2023-02-23T14:29:09;5.78;;;3.60;;
77302;SDS011;66363;49.828;7.856;2023-02-23T14:31:52;8.13;;;4.60;;
77302;SDS011;66363;49.828;7.856;2023-02-23T14:34:24;9.05;;;4.68;;
77302;SDS011;66363;49.828;7.856;2023-02-23T14:37:13;10.45;;;5.07;;
77302;SDS011;66363;49.828;7.856;2023-02-23T14:39:42;8.95;;;4.93;;
77302;SDS011;66363;49.828;7.856;2023-02-23T14:42:13;9.75;;;5.70;;
77302;SDS011;66363;49.828;7.856;2023-02-23T14:44:45;10.02;;;5.00;;
77302;SDS011;66363;49.828;7.856;2023-02-23T14:47:12;9.15;;;5.10;;
77302;SDS011;66363;49.828;7.856;2023-02-23T14:49:41;10.73;;;6.18;;
77302;SDS011;66363;49.828;7.856;2023-02-23T14:52:12;9.95;;;5.88;;
77302;SDS011;66363;49.828;7.856;2023-02-23T14:54:41;8.38;;;5.20;;
77302;SDS011;66363;49.828;7.856;2023-02-23T14:57:15;11.55;;;5.82;;
77302;SDS011;66363;49.828;7.856;2023-02-23T14:59:42;9.40;;;5.28;;
77302;SDS011;66363;49.828;7.856;2023-02-23T15:02:10;9.70;;;6.07;;
77302;SDS011;66363;49.828;7.856;2023-02-23T15:04:42;10.23;;;5.38;;
77302;SDS011;66363;49.828;7.856;2023-02-23T15:07:08;10.60;;;5.57;;
77302;SDS011;66363;49.828;7.856;2023-02-23T15:09:40;10.90;;;5.35;;
77302;SDS011;66363;49.828;7.856;2023-02-23T15:12:15;8.25;;;4.97;;
77302;SDS011;66363;49.828;7.856;2023-02-23T15:14:43;10.57;;;5.57;;
77302;SDS011;66363;49.828;7.856;2023-02-23T15:17:13;8.85;;;5.13;;
77302;SDS011;66363;49.828;7.856;2023-02-23T15:19:42;10.88;;;5.35;;
77302;SDS011;66363;49.828;7.856;2023-02-23T15:22:13;12.18;;;5.60;;
77302;SDS011;66363;49.828;7.856;2023-02-23T15:24:46;11.25;;;5.35;;
77302;SDS011;66363;49.828;7.856;2023-02-23T15:27:18;8.88;;;5.47;;